sensor_id;sensor_type;location;lat;lon;timestamp;temperature;humidity
64718;DHT22;62506;46.070;14.492;2023-05-20T00:00:13;22.40;61.80
64718;DHT22;62506;46.070;14.492;2023-05-20T00:02:39;22.40;61.80
64718;DHT22;62506;46.070;14.492;2023-05-20T00:05:05;22.40;61.80
64718;DHT22;62506;46.070;14.492;2023-05-20T00:07:30;22.40;61.80
64718;DHT22;62506;46.070;14.492;2023-05-20T00:09:56;22.40;61.90
64718;DHT22;62506;46.070;14.492;2023-05-20T00:12:21;22.40;61.90
64718;DHT22;62506;46.070;14.492;2023-05-20T00:14:47;22.40;61.90
64718;DHT22;62506;46.070;14.492;2023-05-20T00:17:12;22.40;61.90
64718;DHT22;62506;46.070;14.492;2023-05-20T00:19:38;22.30;61.80
64718;DHT22;62506;46.070;14.492;2023-05-20T00:22:03;22.40;62.00
64718;DHT22;62506;46.070;14.492;2023-05-20T00:24:29;22.30;62.10
64718;DHT22;62506;46.070;14.492;2023-05-20T00:26:54;22.30;62.00
64718;DHT22;62506;46.070;14.492;2023-05-20T00:29:20;22.30;62.00
64718;DHT22;62506;46.070;14.492;2023-05-20T00:31:45;22.30;61.90
64718;DHT22;62506;46.070;14.492;2023-05-20T00:34:11;22.30;62.00
64718;DHT22;62506;46.070;14.492;2023-05-20T00:36:36;22.30;62.10
64718;DHT22;62506;46.070;14.492;2023-05-20T00:39:02;22.30;62.00
64718;DHT22;62506;46.070;14.492;2023-05-20T00:41:28;22.30;62.10
64718;DHT22;62506;46.070;14.492;2023-05-20T00:43:53;22.30;62.20
64718;DHT22;62506;46.070;14.492;2023-05-20T00:46:19;22.30;62.10
64718;DHT22;62506;46.070;14.492;2023-05-20T00:48:44;22.30;62.10
64718;DHT22;62506;46.070;14.492;2023-05-20T00:51:10;22.30;62.10
64718;DHT22;62506;46.070;14.492;2023-05-20T00:53:37;22.30;62.10
64718;DHT22;62506;46.070;14.492;2023-05-20T00:56:03;22.30;62.10
64718;DHT22;62506;46.070;14.492;2023-05-20T00:58:29;22.30;62.20
64718;DHT22;62506;46.070;14.492;2023-05-20T01:00:55;22.30;62.10
64718;DHT22;62506;46.070;14.492;2023-05-20T01:03:20;22.30;62.30
64718;DHT22;62506;46.070;14.492;2023-05-20T01:05:46;22.30;62.30
64718;DHT22;62506;46.070;14.492;2023-05-20T01:08:12;22.30;62.30
64718;DHT22;62506;46.070;14.492;2023-05-20T01:10:38;22.20;62.10
64718;DHT22;62506;46.070;14.492;2023-05-20T01:13:07;22.30;62.30
64718;DHT22;62506;46.070;14.492;2023-05-20T01:15:35;22.30;62.30
64718;DHT22;62506;46.070;14.492;2023-05-20T01:18:01;22.20;62.30
64718;DHT22;62506;46.070;14.492;2023-05-20T01:20:30;22.20;62.30
64718;DHT22;62506;46.070;14.492;2023-05-20T01:22:56;22.20;62.30
64718;DHT22;62506;46.070;14.492;2023-05-20T01:25:23;22.20;62.30
64718;DHT22;62506;46.070;14.492;2023-05-20T01:27:49;22.30;62.30
64718;DHT22;62506;46.070;14.492;2023-05-20T01:30:15;22.30;62.30
64718;DHT22;62506;46.070;14.492;2023-05-20T01:32:46;22.30;62.30
64718;DHT22;62506;46.070;14.492;2023-05-20T01:35:12;22.20;62.30
64718;DHT22;62506;46.070;14.492;2023-05-20T01:37:39;22.30;62.30
64718;DHT22;62506;46.070;14.492;2023-05-20T01:40:09;22.30;62.30
64718;DHT22;62506;46.070;14.492;2023-05-20T01:42:35;22.30;62.30
64718;DHT22;62506;46.070;14.492;2023-05-20T01:45:02;22.30;62.30
64718;DHT22;62506;46.070;14.492;2023-05-20T01:47:27;22.30;62.30
64718;DHT22;62506;46.070;14.492;2023-05-20T01:49:53;22.20;62.30
64718;DHT22;62506;46.070;14.492;2023-05-20T01:52:19;22.30;62.30
64718;DHT22;62506;46.070;14.492;2023-05-20T01:54:45;22.30;62.30
64718;DHT22;62506;46.070;14.492;2023-05-20T01:57:21;22.30;62.30
64718;DHT22;62506;46.070;14.492;2023-05-20T01:59:47;22.30;62.40
64718;DHT22;62506;46.070;14.492;2023-05-20T02:02:13;22.30;62.30
64718;DHT22;62506;46.070;14.492;2023-05-20T02:04:38;22.20;62.30
64718;DHT22;62506;46.070;14.492;2023-05-20T02:07:04;22.30;62.30
64718;DHT22;62506;46.070;14.492;2023-05-20T02:09:30;22.30;62.30
64718;DHT22;62506;46.070;14.492;2023-05-20T02:11:55;22.30;62.30
64718;DHT22;62506;46.070;14.492;2023-05-20T02:14:20;22.30;62.30
64718;DHT22;62506;46.070;14.492;2023-05-20T02:16:46;22.30;62.30
64718;DHT22;62506;46.070;14.492;2023-05-20T02:19:12;22.30;62.40
64718;DHT22;62506;46.070;14.492;2023-05-20T02:21:38;22.30;62.30
64718;DHT22;62506;46.070;14.492;2023-05-20T02:24:04;22.30;62.40
64718;DHT22;62506;46.070;14.492;2023-05-20T02:26:30;22.30;62.40
64718;DHT22;62506;46.070;14.492;2023-05-20T02:28:55;22.30;62.40
64718;DHT22;62506;46.070;14.492;2023-05-20T02:31:21;22.30;62.30
64718;DHT22;62506;46.070;14.492;2023-05-20T02:33:47;22.30;62.40
64718;DHT22;62506;46.070;14.492;2023-05-20T02:36:12;22.30;62.40
64718;DHT22;62506;46.070;14.492;2023-05-20T02:38:38;22.30;62.40
64718;DHT22;62506;46.070;14.492;2023-05-20T02:41:03;22.30;62.50
64718;DHT22;62506;46.070;14.492;2023-05-20T02:43:29;22.30;62.50
64718;DHT22;62506;46.070;14.492;2023-05-20T02:45:56;22.20;62.40
64718;DHT22;62506;46.070;14.492;2023-05-20T02:48:21;22.20;62.40
64718;DHT22;62506;46.070;14.492;2023-05-20T02:50:47;22.20;62.40
64718;DHT22;62506;46.070;14.492;2023-05-20T02:53:12;22.20;62.50
64718;DHT22;62506;46.070;14.492;2023-05-20T02:55:38;22.20;62.60
64718;DHT22;62506;46.070;14.492;2023-05-20T02:58:04;22.20;62.60
64718;DHT22;62506;46.070;14.492;2023-05-20T03:00:29;22.20;62.60
64718;DHT22;62506;46.070;14.492;2023-05-20T03:02:55;22.20;62.60
64718;DHT22;62506;46.070;14.492;2023-05-20T03:05:21;22.20;62.60
64718;DHT22;62506;46.070;14.492;2023-05-20T03:07:47;22.20;62.60
64718;DHT22;62506;46.070;14.492;2023-05-20T03:10:13;22.20;62.70
64718;DHT22;62506;46.070;14.492;2023-05-20T03:12:38;22.20;62.60
64718;DHT22;62506;46.070;14.492;2023-05-20T03:15:04;22.20;62.70
64718;DHT22;62506;46.070;14.492;2023-05-20T03:17:30;22.20;62.60
64718;DHT22;62506;46.070;14.492;2023-05-20T03:19:55;22.20;62.80
64718;DHT22;62506;46.070;14.492;2023-05-20T03:22:21;22.20;62.60
64718;DHT22;62506;46.070;14.492;2023-05-20T03:24:46;22.20;62.60
64718;DHT22;62506;46.070;14.492;2023-05-20T03:27:12;22.20;62.60
64718;DHT22;62506;46.070;14.492;2023-05-20T03:29:38;22.20;62.80
64718;DHT22;62506;46.070;14.492;2023-05-20T03:32:03;22.20;62.60
64718;DHT22;62506;46.070;14.492;2023-05-20T03:34:29;22.10;62.60
64718;DHT22;62506;46.070;14.492;2023-05-20T03:36:55;22.10;62.60
64718;DHT22;62506;46.070;14.492;2023-05-20T03:39:21;22.10;62.50
64718;DHT22;62506;46.070;14.492;2023-05-20T03:41:47;22.10;62.30
64718;DHT22;62506;46.070;14.492;2023-05-20T03:44:12;22.20;62.50
64718;DHT22;62506;46.070;14.492;2023-05-20T03:46:38;22.20;62.70
64718;DHT22;62506;46.070;14.492;2023-05-20T03:49:03;22.20;62.30
64718;DHT22;62506;46.070;14.492;2023-05-20T03:51:30;22.30;62.30
64718;DHT22;62506;46.070;14.492;2023-05-20T03:53:55;22.30;62.30
64718;DHT22;62506;46.070;14.492;2023-05-20T03:56:21;22.30;62.20
64718;DHT22;62506;46.070;14.492;2023-05-20T03:58:46;22.30;62.20
64718;DHT22;62506;46.070;14.492;2023-05-20T04:01:12;22.40;62.10
64718;DHT22;62506;46.070;14.492;2023-05-20T04:03:38;22.40;62.10
64718;DHT22;62506;46.070;14.492;2023-05-20T04:06:06;22.40;62.10
64718;DHT22;62506;46.070;14.492;2023-05-20T04:08:31;22.40;61.90
64718;DHT22;62506;46.070;14.492;2023-05-20T04:10:58;22.40;61.80
64718;DHT22;62506;46.070;14.492;2023-05-20T04:13:24;22.40;62.70
64718;DHT22;62506;46.070;14.492;2023-05-20T04:15:50;22.50;61.70
64718;DHT22;62506;46.070;14.492;2023-05-20T04:18:19;22.50;61.60
64718;DHT22;62506;46.070;14.492;2023-05-20T04:20:44;22.50;61.60
64718;DHT22;62506;46.070;14.492;2023-05-20T04:23:10;22.50;61.50
64718;DHT22;62506;46.070;14.492;2023-05-20T04:25:36;22.50;61.60
64718;DHT22;62506;46.070;14.492;2023-05-20T04:28:01;22.50;61.60
64718;DHT22;62506;46.070;14.492;2023-05-20T04:30:27;22.50;61.60
64718;DHT22;62506;46.070;14.492;2023-05-20T04:32:52;22.50;61.50
64718;DHT22;62506;46.070;14.492;2023-05-20T04:35:18;22.50;61.50
64718;DHT22;62506;46.070;14.492;2023-05-20T04:37:43;22.50;61.50
64718;DHT22;62506;46.070;14.492;2023-05-20T04:40:12;22.50;61.50
64718;DHT22;62506;46.070;14.492;2023-05-20T04:42:37;22.50;61.50
64718;DHT22;62506;46.070;14.492;2023-05-20T04:45:04;22.50;61.50
64718;DHT22;62506;46.070;14.492;2023-05-20T04:47:30;22.50;61.50
64718;DHT22;62506;46.070;14.492;2023-05-20T04:49:56;22.50;61.50
64718;DHT22;62506;46.070;14.492;2023-05-20T04:52:25;22.50;61.60
64718;DHT22;62506;46.070;14.492;2023-05-20T04:54:51;22.50;61.00
64718;DHT22;62506;46.070;14.492;2023-05-20T04:57:16;22.60;61.20
64718;DHT22;62506;46.070;14.492;2023-05-20T04:59:45;22.60;61.20
64718;DHT22;62506;46.070;14.492;2023-05-20T05:02:11;22.60;61.20
64718;DHT22;62506;46.070;14.492;2023-05-20T05:04:37;22.60;61.10
64718;DHT22;62506;46.070;14.492;2023-05-20T05:07:02;22.60;61.00
64718;DHT22;62506;46.070;14.492;2023-05-20T05:09:29;22.60;61.00
64718;DHT22;62506;46.070;14.492;2023-05-20T05:11:56;22.60;61.00
64718;DHT22;62506;46.070;14.492;2023-05-20T05:14:21;22.60;61.00
64718;DHT22;62506;46.070;14.492;2023-05-20T05:16:48;22.60;61.00
64718;DHT22;62506;46.070;14.492;2023-05-20T05:19:19;22.60;60.90
64718;DHT22;62506;46.070;14.492;2023-05-20T05:21:46;22.60;61.00
64718;DHT22;62506;46.070;14.492;2023-05-20T05:24:12;22.60;61.00
64718;DHT22;62506;46.070;14.492;2023-05-20T05:26:38;22.60;61.00
64718;DHT22;62506;46.070;14.492;2023-05-20T05:29:03;22.60;61.00
64718;DHT22;62506;46.070;14.492;2023-05-20T05:31:29;22.60;61.00
64718;DHT22;62506;46.070;14.492;2023-05-20T05:33:55;22.60;61.00
64718;DHT22;62506;46.070;14.492;2023-05-20T05:36:22;22.60;60.50
64718;DHT22;62506;46.070;14.492;2023-05-20T05:38:47;22.70;61.00
64718;DHT22;62506;46.070;14.492;2023-05-20T05:41:13;22.70;60.90
64718;DHT22;62506;46.070;14.492;2023-05-20T05:43:38;22.70;61.00
64718;DHT22;62506;46.070;14.492;2023-05-20T05:46:04;22.70;61.00
64718;DHT22;62506;46.070;14.492;2023-05-20T05:48:30;22.70;61.00
64718;DHT22;62506;46.070;14.492;2023-05-20T05:51:03;22.70;61.00
64718;DHT22;62506;46.070;14.492;2023-05-20T05:53:29;22.70;61.20
64718;DHT22;62506;46.070;14.492;2023-05-20T05:55:54;22.70;61.40
64718;DHT22;62506;46.070;14.492;2023-05-20T05:58:20;22.70;61.30
64718;DHT22;62506;46.070;14.492;2023-05-20T06:00:45;22.70;60.70
64718;DHT22;62506;46.070;14.492;2023-05-20T06:03:11;22.70;60.70
64718;DHT22;62506;46.070;14.492;2023-05-20T06:05:36;22.70;60.70
64718;DHT22;62506;46.070;14.492;2023-05-20T06:08:02;22.70;60.70
64718;DHT22;62506;46.070;14.492;2023-05-20T06:10:27;22.70;60.50
64718;DHT22;62506;46.070;14.492;2023-05-20T06:12:56;22.70;60.30
64718;DHT22;62506;46.070;14.492;2023-05-20T06:15:21;22.70;60.40
64718;DHT22;62506;46.070;14.492;2023-05-20T06:17:47;22.70;60.50
64718;DHT22;62506;46.070;14.492;2023-05-20T06:20:12;22.80;61.00
64718;DHT22;62506;46.070;14.492;2023-05-20T06:22:38;22.90;61.40
64718;DHT22;62506;46.070;14.492;2023-05-20T06:25:03;22.90;60.40
64718;DHT22;62506;46.070;14.492;2023-05-20T06:27:30;22.90;60.50
64718;DHT22;62506;46.070;14.492;2023-05-20T06:29:56;22.90;59.90
64718;DHT22;62506;46.070;14.492;2023-05-20T06:32:21;22.90;60.20
64718;DHT22;62506;46.070;14.492;2023-05-20T06:34:47;22.90;60.50
64718;DHT22;62506;46.070;14.492;2023-05-20T06:37:12;22.90;60.70
64718;DHT22;62506;46.070;14.492;2023-05-20T06:39:38;22.90;60.60
64718;DHT22;62506;46.070;14.492;2023-05-20T06:42:04;22.90;60.60
64718;DHT22;62506;46.070;14.492;2023-05-20T06:44:29;22.90;60.70
64718;DHT22;62506;46.070;14.492;2023-05-20T06:46:55;22.90;60.60
64718;DHT22;62506;46.070;14.492;2023-05-20T06:49:21;23.00;60.70
64718;DHT22;62506;46.070;14.492;2023-05-20T06:51:47;23.00;61.60
64718;DHT22;62506;46.070;14.492;2023-05-20T06:54:12;23.00;60.50
64718;DHT22;62506;46.070;14.492;2023-05-20T06:56:38;23.00;60.60
64718;DHT22;62506;46.070;14.492;2023-05-20T06:59:03;23.00;60.60
64718;DHT22;62506;46.070;14.492;2023-05-20T07:01:29;23.00;60.80
64718;DHT22;62506;46.070;14.492;2023-05-20T07:03:55;23.00;60.80
64718;DHT22;62506;46.070;14.492;2023-05-20T07:06:20;23.00;60.80
64718;DHT22;62506;46.070;14.492;2023-05-20T07:08:46;23.00;60.90
64718;DHT22;62506;46.070;14.492;2023-05-20T07:11:11;23.00;60.90
64718;DHT22;62506;46.070;14.492;2023-05-20T07:13:37;23.00;61.80
64718;DHT22;62506;46.070;14.492;2023-05-20T07:16:02;23.00;60.90
64718;DHT22;62506;46.070;14.492;2023-05-20T07:18:28;23.00;61.00
64718;DHT22;62506;46.070;14.492;2023-05-20T07:20:54;23.00;61.10
64718;DHT22;62506;46.070;14.492;2023-05-20T07:23:21;23.10;61.00
64718;DHT22;62506;46.070;14.492;2023-05-20T07:25:47;23.10;61.10
64718;DHT22;62506;46.070;14.492;2023-05-20T07:28:14;23.10;61.10
64718;DHT22;62506;46.070;14.492;2023-05-20T07:30:40;23.10;60.90
64718;DHT22;62506;46.070;14.492;2023-05-20T07:33:05;23.10;60.90
64718;DHT22;62506;46.070;14.492;2023-05-20T07:35:31;23.10;60.90
64718;DHT22;62506;46.070;14.492;2023-05-20T07:37:57;23.10;61.10
64718;DHT22;62506;46.070;14.492;2023-05-20T07:40:22;23.10;61.00
64718;DHT22;62506;46.070;14.492;2023-05-20T07:42:48;23.10;60.90
64718;DHT22;62506;46.070;14.492;2023-05-20T07:45:13;23.10;60.90
64718;DHT22;62506;46.070;14.492;2023-05-20T07:47:39;23.10;61.00
64718;DHT22;62506;46.070;14.492;2023-05-20T07:50:04;23.10;61.10
64718;DHT22;62506;46.070;14.492;2023-05-20T07:52:31;23.10;61.10
64718;DHT22;62506;46.070;14.492;2023-05-20T07:54:57;23.20;61.00
64718;DHT22;62506;46.070;14.492;2023-05-20T07:57:22;23.20;61.00
64718;DHT22;62506;46.070;14.492;2023-05-20T07:59:48;23.20;60.40
64718;DHT22;62506;46.070;14.492;2023-05-20T08:02:13;23.20;60.60
64718;DHT22;62506;46.070;14.492;2023-05-20T08:04:40;23.20;60.40
64718;DHT22;62506;46.070;14.492;2023-05-20T08:07:05;23.20;60.80
64718;DHT22;62506;46.070;14.492;2023-05-20T08:09:32;23.20;60.80
64718;DHT22;62506;46.070;14.492;2023-05-20T08:11:58;23.10;60.80
64718;DHT22;62506;46.070;14.492;2023-05-20T08:14:23;23.10;61.00
64718;DHT22;62506;46.070;14.492;2023-05-20T08:16:49;23.10;61.00
64718;DHT22;62506;46.070;14.492;2023-05-20T08:19:14;23.10;61.10
64718;DHT22;62506;46.070;14.492;2023-05-20T08:21:40;23.10;61.00
64718;DHT22;62506;46.070;14.492;2023-05-20T08:24:06;23.10;61.10
64718;DHT22;62506;46.070;14.492;2023-05-20T08:26:32;23.00;61.60
64718;DHT22;62506;46.070;14.492;2023-05-20T08:28:57;23.00;61.70
64718;DHT22;62506;46.070;14.492;2023-05-20T08:31:23;23.10;61.60
64718;DHT22;62506;46.070;14.492;2023-05-20T08:33:48;23.10;61.40
64718;DHT22;62506;46.070;14.492;2023-05-20T08:36:14;23.00;61.30
64718;DHT22;62506;46.070;14.492;2023-05-20T08:38:40;23.00;61.30
64718;DHT22;62506;46.070;14.492;2023-05-20T08:41:06;23.00;61.30
64718;DHT22;62506;46.070;14.492;2023-05-20T08:43:31;23.00;61.20
64718;DHT22;62506;46.070;14.492;2023-05-20T08:45:57;23.00;61.10
64718;DHT22;62506;46.070;14.492;2023-05-20T08:48:24;23.00;61.00
64718;DHT22;62506;46.070;14.492;2023-05-20T08:50:50;23.00;61.10
64718;DHT22;62506;46.070;14.492;2023-05-20T08:53:16;23.00;61.10
64718;DHT22;62506;46.070;14.492;2023-05-20T08:55:43;23.00;61.10
64718;DHT22;62506;46.070;14.492;2023-05-20T08:58:11;23.00;61.10
64718;DHT22;62506;46.070;14.492;2023-05-20T09:00:36;23.00;61.10
64718;DHT22;62506;46.070;14.492;2023-05-20T09:03:02;23.00;61.10
64718;DHT22;62506;46.070;14.492;2023-05-20T09:05:28;23.00;61.10
64718;DHT22;62506;46.070;14.492;2023-05-20T09:08:03;22.90;61.10
64718;DHT22;62506;46.070;14.492;2023-05-20T09:10:30;23.00;61.10
64718;DHT22;62506;46.070;14.492;2023-05-20T09:12:56;23.00;61.10
64718;DHT22;62506;46.070;14.492;2023-05-20T09:15:21;23.00;61.00
64718;DHT22;62506;46.070;14.492;2023-05-20T09:17:48;23.00;61.00
64718;DHT22;62506;46.070;14.492;2023-05-20T09:20:14;23.00;61.10
64718;DHT22;62506;46.070;14.492;2023-05-20T09:22:40;23.00;61.00
64718;DHT22;62506;46.070;14.492;2023-05-20T09:25:05;23.00;60.90
64718;DHT22;62506;46.070;14.492;2023-05-20T09:27:32;23.00;60.80
64718;DHT22;62506;46.070;14.492;2023-05-20T09:29:58;23.00;60.80
64718;DHT22;62506;46.070;14.492;2023-05-20T09:32:23;23.00;60.70
64718;DHT22;62506;46.070;14.492;2023-05-20T09:34:52;23.00;60.60
64718;DHT22;62506;46.070;14.492;2023-05-20T09:37:17;23.00;60.60
64718;DHT22;62506;46.070;14.492;2023-05-20T09:42:22;23.00;60.50
64718;DHT22;62506;46.070;14.492;2023-05-20T09:44:51;23.00;60.50
64718;DHT22;62506;46.070;14.492;2023-05-20T09:47:18;22.90;60.50
64718;DHT22;62506;46.070;14.492;2023-05-20T09:49:44;23.00;60.50
64718;DHT22;62506;46.070;14.492;2023-05-20T09:52:13;23.00;60.40
64718;DHT22;62506;46.070;14.492;2023-05-20T09:54:39;23.00;60.40
64718;DHT22;62506;46.070;14.492;2023-05-20T09:57:06;23.00;60.50
64718;DHT22;62506;46.070;14.492;2023-05-20T09:59:31;22.90;60.50
64718;DHT22;62506;46.070;14.492;2023-05-20T10:01:57;22.90;60.50
64718;DHT22;62506;46.070;14.492;2023-05-20T10:04:23;22.90;60.60
64718;DHT22;62506;46.070;14.492;2023-05-20T10:07:06;22.90;60.50
64718;DHT22;62506;46.070;14.492;2023-05-20T10:16:59;22.90;60.40
64718;DHT22;62506;46.070;14.492;2023-05-20T10:19:27;22.90;60.30
64718;DHT22;62506;46.070;14.492;2023-05-20T10:21:57;22.90;60.30
64718;DHT22;62506;46.070;14.492;2023-05-20T10:24:28;22.90;60.30
64718;DHT22;62506;46.070;14.492;2023-05-20T10:26:54;22.90;60.20
64718;DHT22;62506;46.070;14.492;2023-05-20T10:29:20;22.90;60.30
64718;DHT22;62506;46.070;14.492;2023-05-20T10:31:50;22.90;60.30
64718;DHT22;62506;46.070;14.492;2023-05-20T10:34:19;22.90;60.30
64718;DHT22;62506;46.070;14.492;2023-05-20T10:39:30;22.90;60.30
64718;DHT22;62506;46.070;14.492;2023-05-20T10:42:05;22.90;60.20
64718;DHT22;62506;46.070;14.492;2023-05-20T10:44:40;22.90;60.30
64718;DHT22;62506;46.070;14.492;2023-05-20T10:47:06;22.90;60.20
64718;DHT22;62506;46.070;14.492;2023-05-20T10:49:32;22.90;60.20
64718;DHT22;62506;46.070;14.492;2023-05-20T10:51:58;22.90;60.10
64718;DHT22;62506;46.070;14.492;2023-05-20T10:54:24;22.90;60.00
64718;DHT22;62506;46.070;14.492;2023-05-20T10:56:51;22.90;60.00
64718;DHT22;62506;46.070;14.492;2023-05-20T10:59:17;22.90;60.00
64718;DHT22;62506;46.070;14.492;2023-05-20T11:01:42;22.90;60.00
64718;DHT22;62506;46.070;14.492;2023-05-20T11:04:08;22.90;60.00
64718;DHT22;62506;46.070;14.492;2023-05-20T11:06:34;22.90;60.00
64718;DHT22;62506;46.070;14.492;2023-05-20T11:09:03;22.90;60.00
64718;DHT22;62506;46.070;14.492;2023-05-20T11:11:30;22.90;60.00
64718;DHT22;62506;46.070;14.492;2023-05-20T11:13:56;22.90;60.00
64718;DHT22;62506;46.070;14.492;2023-05-20T11:16:21;22.90;60.00
64718;DHT22;62506;46.070;14.492;2023-05-20T11:18:48;22.90;59.90
64718;DHT22;62506;46.070;14.492;2023-05-20T11:21:13;22.90;59.90
64718;DHT22;62506;46.070;14.492;2023-05-20T11:23:39;22.90;60.00
64718;DHT22;62506;46.070;14.492;2023-05-20T11:26:04;22.90;60.00
64718;DHT22;62506;46.070;14.492;2023-05-20T11:28:30;22.90;60.00
64718;DHT22;62506;46.070;14.492;2023-05-20T11:30:58;22.90;60.00
64718;DHT22;62506;46.070;14.492;2023-05-20T11:33:24;22.90;60.00
64718;DHT22;62506;46.070;14.492;2023-05-20T11:35:51;22.80;60.00
64718;DHT22;62506;46.070;14.492;2023-05-20T11:38:17;22.90;60.00
64718;DHT22;62506;46.070;14.492;2023-05-20T11:40:50;22.80;60.00
64718;DHT22;62506;46.070;14.492;2023-05-20T11:43:16;22.90;60.10
64718;DHT22;62506;46.070;14.492;2023-05-20T11:45:43;22.80;60.00
64718;DHT22;62506;46.070;14.492;2023-05-20T11:48:09;22.90;60.00
64718;DHT22;62506;46.070;14.492;2023-05-20T11:50:39;22.80;60.00
64718;DHT22;62506;46.070;14.492;2023-05-20T11:53:06;22.90;60.00
64718;DHT22;62506;46.070;14.492;2023-05-20T11:55:31;22.90;59.10
64718;DHT22;62506;46.070;14.492;2023-05-20T11:58:00;22.90;58.20
64718;DHT22;62506;46.070;14.492;2023-05-20T12:00:27;22.90;58.10
64718;DHT22;62506;46.070;14.492;2023-05-20T12:02:53;22.90;57.60
64718;DHT22;62506;46.070;14.492;2023-05-20T12:05:18;22.90;58.00
64718;DHT22;62506;46.070;14.492;2023-05-20T12:07:44;22.90;57.80
64718;DHT22;62506;46.070;14.492;2023-05-20T12:10:10;22.90;57.30
64718;DHT22;62506;46.070;14.492;2023-05-20T12:12:35;22.80;57.60
64718;DHT22;62506;46.070;14.492;2023-05-20T12:15:02;22.90;58.10
64718;DHT22;62506;46.070;14.492;2023-05-20T12:17:27;22.90;58.30
64718;DHT22;62506;46.070;14.492;2023-05-20T12:19:53;22.90;58.50
64718;DHT22;62506;46.070;14.492;2023-05-20T12:22:18;22.90;58.60
64718;DHT22;62506;46.070;14.492;2023-05-20T12:24:44;22.90;58.90
64718;DHT22;62506;46.070;14.492;2023-05-20T12:27:09;22.90;59.10
64718;DHT22;62506;46.070;14.492;2023-05-20T12:29:35;22.90;58.70
64718;DHT22;62506;46.070;14.492;2023-05-20T12:32:01;22.90;58.70
64718;DHT22;62506;46.070;14.492;2023-05-20T12:34:26;22.90;58.90
64718;DHT22;62506;46.070;14.492;2023-05-20T12:36:52;22.90;59.00
64718;DHT22;62506;46.070;14.492;2023-05-20T12:39:18;22.90;59.00
64718;DHT22;62506;46.070;14.492;2023-05-20T12:41:43;22.90;59.00
64718;DHT22;62506;46.070;14.492;2023-05-20T12:44:09;22.90;59.00
64718;DHT22;62506;46.070;14.492;2023-05-20T12:46:35;22.90;59.10
64718;DHT22;62506;46.070;14.492;2023-05-20T12:49:01;22.90;59.10
64718;DHT22;62506;46.070;14.492;2023-05-20T12:51:26;22.90;59.10
64718;DHT22;62506;46.070;14.492;2023-05-20T12:53:52;22.90;59.10
64718;DHT22;62506;46.070;14.492;2023-05-20T12:56:17;22.90;59.10
64718;DHT22;62506;46.070;14.492;2023-05-20T12:58:44;22.90;59.10
64718;DHT22;62506;46.070;14.492;2023-05-20T13:01:09;22.90;59.20
64718;DHT22;62506;46.070;14.492;2023-05-20T13:03:35;22.90;59.20
64718;DHT22;62506;46.070;14.492;2023-05-20T13:06:00;22.80;59.20
64718;DHT22;62506;46.070;14.492;2023-05-20T13:08:26;22.90;59.50
64718;DHT22;62506;46.070;14.492;2023-05-20T13:10:52;22.90;59.30
64718;DHT22;62506;46.070;14.492;2023-05-20T13:13:17;22.90;59.50
64718;DHT22;62506;46.070;14.492;2023-05-20T13:15:46;22.90;59.60
64718;DHT22;62506;46.070;14.492;2023-05-20T13:18:13;23.00;59.50
64718;DHT22;62506;46.070;14.492;2023-05-20T13:20:41;23.00;59.60
64718;DHT22;62506;46.070;14.492;2023-05-20T13:23:07;23.00;59.80
64718;DHT22;62506;46.070;14.492;2023-05-20T13:25:32;23.00;60.00
64718;DHT22;62506;46.070;14.492;2023-05-20T13:27:58;23.00;59.80
64718;DHT22;62506;46.070;14.492;2023-05-20T13:30:23;23.00;59.70
64718;DHT22;62506;46.070;14.492;2023-05-20T13:32:49;23.10;59.90
64718;DHT22;62506;46.070;14.492;2023-05-20T13:35:14;23.10;59.80
64718;DHT22;62506;46.070;14.492;2023-05-20T13:37:41;23.10;59.80
64718;DHT22;62506;46.070;14.492;2023-05-20T13:40:06;23.10;59.90
64718;DHT22;62506;46.070;14.492;2023-05-20T13:42:32;23.10;59.90
64718;DHT22;62506;46.070;14.492;2023-05-20T13:44:58;23.20;59.60
64718;DHT22;62506;46.070;14.492;2023-05-20T13:47:23;23.20;59.80
64718;DHT22;62506;46.070;14.492;2023-05-20T13:49:49;23.30;59.50
64718;DHT22;62506;46.070;14.492;2023-05-20T13:52:14;23.30;59.50
64718;DHT22;62506;46.070;14.492;2023-05-20T13:54:40;23.20;59.80
64718;DHT22;62506;46.070;14.492;2023-05-20T13:57:07;23.30;59.80
64718;DHT22;62506;46.070;14.492;2023-05-20T13:59:32;23.30;59.80
64718;DHT22;62506;46.070;14.492;2023-05-20T14:01:59;23.20;60.60
64718;DHT22;62506;46.070;14.492;2023-05-20T14:04:25;23.20;59.80
64718;DHT22;62506;46.070;14.492;2023-05-20T14:06:50;23.10;59.90
64718;DHT22;62506;46.070;14.492;2023-05-20T14:09:16;23.10;60.00
64718;DHT22;62506;46.070;14.492;2023-05-20T14:11:41;23.10;60.00
64718;DHT22;62506;46.070;14.492;2023-05-20T14:14:07;23.10;60.00
64718;DHT22;62506;46.070;14.492;2023-05-20T14:16:32;23.10;60.10
64718;DHT22;62506;46.070;14.492;2023-05-20T14:18:58;23.10;60.10
64718;DHT22;62506;46.070;14.492;2023-05-20T14:21:23;23.10;60.30
64718;DHT22;62506;46.070;14.492;2023-05-20T14:23:49;23.10;60.30
64718;DHT22;62506;46.070;14.492;2023-05-20T14:26:14;23.10;60.30
64718;DHT22;62506;46.070;14.492;2023-05-20T14:28:40;23.10;60.30
64718;DHT22;62506;46.070;14.492;2023-05-20T14:31:06;23.10;60.20
64718;DHT22;62506;46.070;14.492;2023-05-20T14:33:31;23.10;60.30
64718;DHT22;62506;46.070;14.492;2023-05-20T14:35:57;23.10;60.20
64718;DHT22;62506;46.070;14.492;2023-05-20T14:38:23;23.10;60.20
64718;DHT22;62506;46.070;14.492;2023-05-20T14:40:48;23.10;60.10
64718;DHT22;62506;46.070;14.492;2023-05-20T14:43:14;23.10;60.30
64718;DHT22;62506;46.070;14.492;2023-05-20T14:45:39;23.20;60.30
64718;DHT22;62506;46.070;14.492;2023-05-20T14:48:05;23.20;60.40
64718;DHT22;62506;46.070;14.492;2023-05-20T14:50:31;23.20;60.20
64718;DHT22;62506;46.070;14.492;2023-05-20T14:52:56;23.20;60.30
64718;DHT22;62506;46.070;14.492;2023-05-20T14:55:22;23.20;60.30
64718;DHT22;62506;46.070;14.492;2023-05-20T14:57:47;23.20;60.10
64718;DHT22;62506;46.070;14.492;2023-05-20T15:00:13;23.20;60.10
64718;DHT22;62506;46.070;14.492;2023-05-20T15:02:38;23.20;59.90
64718;DHT22;62506;46.070;14.492;2023-05-20T15:05:04;23.20;60.00
64718;DHT22;62506;46.070;14.492;2023-05-20T15:07:30;23.20;59.90
64718;DHT22;62506;46.070;14.492;2023-05-20T15:09:55;23.20;60.10
64718;DHT22;62506;46.070;14.492;2023-05-20T15:12:21;23.20;60.00
64718;DHT22;62506;46.070;14.492;2023-05-20T15:14:46;23.20;60.10
64718;DHT22;62506;46.070;14.492;2023-05-20T15:17:12;23.30;60.10
64718;DHT22;62506;46.070;14.492;2023-05-20T15:19:37;23.20;59.80